sensor_id;sensor_type;location;lat;lon;timestamp;P1;durP1;ratioP1;P2;durP2;ratioP2
2840;SDS011;53423;49.224;12.074;2023-03-20T00:02:01;9.77;;;8.83;;
2840;SDS011;53423;49.224;12.074;2023-03-20T00:04:29;8.93;;;8.03;;
2840;SDS011;53423;49.224;12.074;2023-03-20T00:06:57;9.33;;;8.50;;
2840;SDS011;53423;49.224;12.074;2023-03-20T00:09:25;9.00;;;8.30;;
2840;SDS011;53423;49.224;12.074;2023-03-20T00:11:54;8.90;;;8.20;;
2840;SDS011;53423;49.224;12.074;2023-03-20T00:14:23;11.23;;;9.63;;
2840;SDS011;53423;49.224;12.074;2023-03-20T00:16:52;11.27;;;8.97;;
2840;SDS011;53423;49.224;12.074;2023-03-20T00:19:20;9.60;;;8.80;;
2840;SDS011;53423;49.224;12.074;2023-03-20T00:21:50;9.67;;;8.73;;
2840;SDS011;53423;49.224;12.074;2023-03-20T00:24:18;10.37;;;9.43;;
2840;SDS011;53423;49.224;12.074;2023-03-20T00:26:47;10.17;;;9.13;;
2840;SDS011;53423;49.224;12.074;2023-03-20T00:29:18;9.37;;;8.57;;
2840;SDS011;53423;49.224;12.074;2023-03-20T00:31:49;9.93;;;9.03;;
2840;SDS011;53423;49.224;12.074;2023-03-20T00:34:18;10.47;;;8.97;;
2840;SDS011;53423;49.224;12.074;2023-03-20T00:36:48;9.23;;;8.20;;
2840;SDS011;53423;49.224;12.074;2023-03-20T00:39:17;9.27;;;8.50;;
2840;SDS011;53423;49.224;12.074;2023-03-20T00:41:46;9.47;;;8.67;;
2840;SDS011;53423;49.224;12.074;2023-03-20T00:44:18;9.50;;;8.60;;
2840;SDS011;53423;49.224;12.074;2023-03-20T00:46:50;9.27;;;8.40;;
2840;SDS011;53423;49.224;12.074;2023-03-20T00:49:21;11.13;;;8.87;;
2840;SDS011;53423;49.224;12.074;2023-03-20T00:51:53;9.50;;;8.60;;
2840;SDS011;53423;49.224;12.074;2023-03-20T00:54:24;8.40;;;7.70;;
2840;SDS011;53423;49.224;12.074;2023-03-20T00:56:53;9.90;;;8.40;;
2840;SDS011;53423;49.224;12.074;2023-03-20T00:59:25;9.30;;;8.27;;
2840;SDS011;53423;49.224;12.074;2023-03-20T01:01:56;8.43;;;7.73;;
2840;SDS011;53423;49.224;12.074;2023-03-20T01:04:25;8.73;;;7.90;;
2840;SDS011;53423;49.224;12.074;2023-03-20T01:06:57;8.83;;;7.90;;
2840;SDS011;53423;49.224;12.074;2023-03-20T01:09:26;8.27;;;7.57;;
2840;SDS011;53423;49.224;12.074;2023-03-20T01:11:54;8.93;;;8.13;;
2840;SDS011;53423;49.224;12.074;2023-03-20T01:14:22;8.93;;;8.13;;
2840;SDS011;53423;49.224;12.074;2023-03-20T01:16:51;9.90;;;7.67;;
2840;SDS011;53423;49.224;12.074;2023-03-20T01:19:21;8.87;;;7.97;;
2840;SDS011;53423;49.224;12.074;2023-03-20T01:21:49;9.07;;;8.17;;
2840;SDS011;53423;49.224;12.074;2023-03-20T01:24:17;7.83;;;7.13;;
2840;SDS011;53423;49.224;12.074;2023-03-20T01:26:45;8.20;;;7.40;;
2840;SDS011;53423;49.224;12.074;2023-03-20T01:29:15;8.17;;;7.37;;
2840;SDS011;53423;49.224;12.074;2023-03-20T01:31:45;9.47;;;7.73;;
2840;SDS011;53423;49.224;12.074;2023-03-20T01:34:13;8.30;;;7.53;;
2840;SDS011;53423;49.224;12.074;2023-03-20T01:36:45;8.10;;;7.30;;
2840;SDS011;53423;49.224;12.074;2023-03-20T01:39:16;7.37;;;6.67;;
2840;SDS011;53423;49.224;12.074;2023-03-20T01:41:47;8.17;;;7.37;;
2840;SDS011;53423;49.224;12.074;2023-03-20T01:44:17;8.17;;;7.37;;
2840;SDS011;53423;49.224;12.074;2023-03-20T01:46:56;7.63;;;6.73;;
2840;SDS011;53423;49.224;12.074;2023-03-20T01:52:42;7.53;;;6.63;;
2840;SDS011;53423;49.224;12.074;2023-03-20T01:55:11;7.43;;;6.73;;
2840;SDS011;53423;49.224;12.074;2023-03-20T01:57:39;7.73;;;7.03;;
2840;SDS011;53423;49.224;12.074;2023-03-20T02:00:08;7.97;;;7.23;;
2840;SDS011;53423;49.224;12.074;2023-03-20T02:02:41;7.73;;;7.00;;
2840;SDS011;53423;49.224;12.074;2023-03-20T02:05:11;7.87;;;7.17;;
2840;SDS011;53423;49.224;12.074;2023-03-20T02:07:42;8.00;;;7.20;;
2840;SDS011;53423;49.224;12.074;2023-03-20T02:10:14;7.77;;;7.10;;
2840;SDS011;53423;49.224;12.074;2023-03-20T02:12:43;9.23;;;6.83;;
2840;SDS011;53423;49.224;12.074;2023-03-20T02:15:12;7.37;;;6.73;;
2840;SDS011;53423;49.224;12.074;2023-03-20T02:17:44;8.20;;;7.40;;
2840;SDS011;53423;49.224;12.074;2023-03-20T02:20:15;8.23;;;7.43;;
2840;SDS011;53423;49.224;12.074;2023-03-20T02:26:17;7.60;;;6.80;;
2840;SDS011;53423;49.224;12.074;2023-03-20T02:31:58;6.87;;;6.17;;
2840;SDS011;53423;49.224;12.074;2023-03-20T02:34:55;7.47;;;6.47;;
2840;SDS011;53423;49.224;12.074;2023-03-20T02:37:47;6.47;;;5.97;;
2840;SDS011;53423;49.224;12.074;2023-03-20T02:40:35;6.43;;;5.83;;
2840;SDS011;53423;49.224;12.074;2023-03-20T02:43:13;7.10;;;6.40;;
2840;SDS011;53423;49.224;12.074;2023-03-20T02:45:48;6.20;;;5.70;;
2840;SDS011;53423;49.224;12.074;2023-03-20T02:48:25;7.20;;;6.50;;
2840;SDS011;53423;49.224;12.074;2023-03-20T02:51:01;6.93;;;5.63;;
2840;SDS011;53423;49.224;12.074;2023-03-20T02:53:41;5.43;;;5.00;;
2840;SDS011;53423;49.224;12.074;2023-03-20T02:56:17;5.00;;;4.60;;
2840;SDS011;53423;49.224;12.074;2023-03-20T02:58:51;5.07;;;4.67;;
2840;SDS011;53423;49.224;12.074;2023-03-20T03:01:27;5.03;;;4.53;;
2840;SDS011;53423;49.224;12.074;2023-03-20T03:03:59;5.00;;;4.50;;
2840;SDS011;53423;49.224;12.074;2023-03-20T03:06:32;6.83;;;5.47;;
2840;SDS011;53423;49.224;12.074;2023-03-20T03:09:05;4.67;;;4.27;;
2840;SDS011;53423;49.224;12.074;2023-03-20T03:11:39;6.37;;;5.07;;
2840;SDS011;53423;49.224;12.074;2023-03-20T03:14:12;6.83;;;5.10;;
2840;SDS011;53423;49.224;12.074;2023-03-20T03:16:45;6.23;;;5.67;;
2840;SDS011;53423;49.224;12.074;2023-03-20T03:19:17;6.07;;;4.80;;
2840;SDS011;53423;49.224;12.074;2023-03-20T03:21:48;5.07;;;4.57;;
2840;SDS011;53423;49.224;12.074;2023-03-20T03:24:20;5.73;;;4.60;;
2840;SDS011;53423;49.224;12.074;2023-03-20T03:27:06;5.10;;;4.30;;
2840;SDS011;53423;49.224;12.074;2023-03-20T03:29:42;5.77;;;4.50;;
2840;SDS011;53423;49.224;12.074;2023-03-20T03:32:25;4.43;;;4.10;;
2840;SDS011;53423;49.224;12.074;2023-03-20T03:34:56;4.67;;;4.27;;
2840;SDS011;53423;49.224;12.074;2023-03-20T03:37:28;5.00;;;4.50;;
2840;SDS011;53423;49.224;12.074;2023-03-20T03:40:10;5.63;;;5.10;;
2840;SDS011;53423;49.224;12.074;2023-03-20T03:42:47;5.53;;;4.80;;
2840;SDS011;53423;49.224;12.074;2023-03-20T03:45:23;9.37;;;5.40;;
2840;SDS011;53423;49.224;12.074;2023-03-20T03:47:57;6.63;;;4.90;;
2840;SDS011;53423;49.224;12.074;2023-03-20T03:50:30;5.87;;;5.37;;
2840;SDS011;53423;49.224;12.074;2023-03-20T03:53:05;5.57;;;5.00;;
2840;SDS011;53423;49.224;12.074;2023-03-20T03:55:41;5.27;;;4.87;;
2840;SDS011;53423;49.224;12.074;2023-03-20T03:58:12;5.50;;;5.00;;
2840;SDS011;53423;49.224;12.074;2023-03-20T04:00:44;5.77;;;5.17;;
2840;SDS011;53423;49.224;12.074;2023-03-20T04:03:15;6.07;;;5.47;;
2840;SDS011;53423;49.224;12.074;2023-03-20T04:05:48;5.53;;;5.03;;
2840;SDS011;53423;49.224;12.074;2023-03-20T04:08:19;6.43;;;5.17;;
2840;SDS011;53423;49.224;12.074;2023-03-20T04:10:48;5.87;;;5.10;;
2840;SDS011;53423;49.224;12.074;2023-03-20T04:13:16;5.57;;;5.03;;
2840;SDS011;53423;49.224;12.074;2023-03-20T04:15:44;6.07;;;5.37;;
2840;SDS011;53423;49.224;12.074;2023-03-20T04:18:13;5.30;;;4.90;;
2840;SDS011;53423;49.224;12.074;2023-03-20T04:20:41;5.00;;;4.60;;
2840;SDS011;53423;49.224;12.074;2023-03-20T04:23:09;5.43;;;4.90;;
2840;SDS011;53423;49.224;12.074;2023-03-20T04:25:37;5.10;;;4.70;;
2840;SDS011;53423;49.224;12.074;2023-03-20T04:28:07;4.90;;;4.50;;
2840;SDS011;53423;49.224;12.074;2023-03-20T04:30:37;4.97;;;4.57;;
2840;SDS011;53423;49.224;12.074;2023-03-20T04:33:04;4.80;;;4.20;;
2840;SDS011;53423;49.224;12.074;2023-03-20T04:35:33;4.43;;;4.03;;
2840;SDS011;53423;49.224;12.074;2023-03-20T04:38:01;5.67;;;4.43;;
2840;SDS011;53423;49.224;12.074;2023-03-20T04:40:29;5.13;;;4.47;;
2840;SDS011;53423;49.224;12.074;2023-03-20T04:42:57;5.07;;;4.63;;
2840;SDS011;53423;49.224;12.074;2023-03-20T04:45:27;4.90;;;4.50;;
2840;SDS011;53423;49.224;12.074;2023-03-20T04:47:55;4.97;;;4.50;;
2840;SDS011;53423;49.224;12.074;2023-03-20T04:50:22;5.03;;;4.63;;
2840;SDS011;53423;49.224;12.074;2023-03-20T04:52:50;5.60;;;5.03;;
2840;SDS011;53423;49.224;12.074;2023-03-20T04:55:18;5.07;;;4.60;;
2840;SDS011;53423;49.224;12.074;2023-03-20T04:57:47;4.97;;;4.53;;
2840;SDS011;53423;49.224;12.074;2023-03-20T05:00:16;5.50;;;5.03;;
2840;SDS011;53423;49.224;12.074;2023-03-20T05:02:46;6.07;;;5.47;;
2840;SDS011;53423;49.224;12.074;2023-03-20T05:05:14;5.50;;;5.10;;
2840;SDS011;53423;49.224;12.074;2023-03-20T05:07:42;6.40;;;5.57;;
2840;SDS011;53423;49.224;12.074;2023-03-20T05:10:10;5.90;;;5.40;;
2840;SDS011;53423;49.224;12.074;2023-03-20T05:12:38;6.30;;;5.80;;
2840;SDS011;53423;49.224;12.074;2023-03-20T05:15:06;6.90;;;6.30;;
2840;SDS011;53423;49.224;12.074;2023-03-20T05:17:35;6.57;;;5.37;;
2840;SDS011;53423;49.224;12.074;2023-03-20T05:20:05;6.43;;;5.90;;
2840;SDS011;53423;49.224;12.074;2023-03-20T05:22:33;6.67;;;5.63;;
2840;SDS011;53423;49.224;12.074;2023-03-20T05:25:02;5.50;;;5.00;;
2840;SDS011;53423;49.224;12.074;2023-03-20T05:27:30;5.60;;;4.47;;
2840;SDS011;53423;49.224;12.074;2023-03-20T05:29:58;5.20;;;4.77;;
2840;SDS011;53423;49.224;12.074;2023-03-20T05:32:26;4.60;;;4.13;;
2840;SDS011;53423;49.224;12.074;2023-03-20T05:34:54;5.03;;;4.53;;
2840;SDS011;53423;49.224;12.074;2023-03-20T05:37:23;5.53;;;5.03;;
2840;SDS011;53423;49.224;12.074;2023-03-20T05:39:51;5.43;;;4.93;;
2840;SDS011;53423;49.224;12.074;2023-03-20T05:42:19;5.63;;;4.53;;
2840;SDS011;53423;49.224;12.074;2023-03-20T05:44:46;5.57;;;4.90;;
2840;SDS011;53423;49.224;12.074;2023-03-20T05:47:14;5.47;;;4.60;;
2840;SDS011;53423;49.224;12.074;2023-03-20T05:49:42;4.77;;;4.37;;
2840;SDS011;53423;49.224;12.074;2023-03-20T05:52:10;5.97;;;4.83;;
2840;SDS011;53423;49.224;12.074;2023-03-20T05:54:40;4.70;;;4.30;;
2840;SDS011;53423;49.224;12.074;2023-03-20T05:57:07;8.63;;;6.53;;
2840;SDS011;53423;49.224;12.074;2023-03-20T05:59:35;6.90;;;6.10;;
2840;SDS011;53423;49.224;12.074;2023-03-20T06:02:03;7.77;;;6.60;;
2840;SDS011;53423;49.224;12.074;2023-03-20T06:04:31;9.10;;;6.23;;
2840;SDS011;53423;49.224;12.074;2023-03-20T06:07:00;8.43;;;6.80;;
2840;SDS011;53423;49.224;12.074;2023-03-20T06:09:28;8.87;;;6.50;;
2840;SDS011;53423;49.224;12.074;2023-03-20T06:11:57;7.77;;;6.40;;
2840;SDS011;53423;49.224;12.074;2023-03-20T06:14:25;7.40;;;6.17;;
2840;SDS011;53423;49.224;12.074;2023-03-20T06:16:53;7.13;;;6.43;;
2840;SDS011;53423;49.224;12.074;2023-03-20T06:19:22;7.50;;;6.73;;
2840;SDS011;53423;49.224;12.074;2023-03-20T06:21:50;7.10;;;6.50;;
2840;SDS011;53423;49.224;12.074;2023-03-20T06:24:18;8.77;;;7.13;;
2840;SDS011;53423;49.224;12.074;2023-03-20T06:26:46;8.73;;;7.73;;
2840;SDS011;53423;49.224;12.074;2023-03-20T06:29:15;8.07;;;7.20;;
2840;SDS011;53423;49.224;12.074;2023-03-20T06:31:43;8.33;;;7.00;;
2840;SDS011;53423;49.224;12.074;2023-03-20T06:34:11;9.07;;;7.83;;
2840;SDS011;53423;49.224;12.074;2023-03-20T06:36:39;8.47;;;6.53;;
2840;SDS011;53423;49.224;12.074;2023-03-20T06:39:10;8.27;;;6.50;;
2840;SDS011;53423;49.224;12.074;2023-03-20T06:41:38;7.17;;;6.27;;
2840;SDS011;53423;49.224;12.074;2023-03-20T06:44:06;8.87;;;6.13;;
2840;SDS011;53423;49.224;12.074;2023-03-20T06:46:35;6.53;;;6.03;;
2840;SDS011;53423;49.224;12.074;2023-03-20T06:49:03;6.73;;;5.70;;
2840;SDS011;53423;49.224;12.074;2023-03-20T06:51:31;7.30;;;6.27;;
2840;SDS011;53423;49.224;12.074;2023-03-20T06:53:59;8.43;;;6.20;;
2840;SDS011;53423;49.224;12.074;2023-03-20T06:56:27;7.23;;;6.53;;
2840;SDS011;53423;49.224;12.074;2023-03-20T06:58:55;10.10;;;7.07;;
2840;SDS011;53423;49.224;12.074;2023-03-20T07:01:23;7.50;;;6.70;;
2840;SDS011;53423;49.224;12.074;2023-03-20T07:03:52;7.63;;;6.93;;
2840;SDS011;53423;49.224;12.074;2023-03-20T07:06:21;8.10;;;7.40;;
2840;SDS011;53423;49.224;12.074;2023-03-20T07:08:48;7.57;;;6.90;;
2840;SDS011;53423;49.224;12.074;2023-03-20T07:11:18;8.33;;;7.53;;
2840;SDS011;53423;49.224;12.074;2023-03-20T07:13:46;7.33;;;6.73;;
2840;SDS011;53423;49.224;12.074;2023-03-20T07:16:15;7.47;;;6.80;;
2840;SDS011;53423;49.224;12.074;2023-03-20T07:18:43;6.87;;;6.17;;
2840;SDS011;53423;49.224;12.074;2023-03-20T07:21:14;6.40;;;5.70;;
2840;SDS011;53423;49.224;12.074;2023-03-20T07:23:45;6.90;;;6.27;;
2840;SDS011;53423;49.224;12.074;2023-03-20T07:26:13;6.73;;;6.13;;
2840;SDS011;53423;49.224;12.074;2023-03-20T07:28:41;6.67;;;6.07;;
2840;SDS011;53423;49.224;12.074;2023-03-20T07:31:10;6.70;;;6.10;;
2840;SDS011;53423;49.224;12.074;2023-03-20T07:33:45;7.53;;;6.80;;
2840;SDS011;53423;49.224;12.074;2023-03-20T07:36:15;7.53;;;6.60;;
2840;SDS011;53423;49.224;12.074;2023-03-20T07:38:43;7.80;;;6.97;;
2840;SDS011;53423;49.224;12.074;2023-03-20T07:41:11;7.60;;;6.90;;
2840;SDS011;53423;49.224;12.074;2023-03-20T07:43:39;8.53;;;6.93;;
2840;SDS011;53423;49.224;12.074;2023-03-20T07:46:09;7.83;;;7.13;;
2840;SDS011;53423;49.224;12.074;2023-03-20T07:48:38;7.93;;;7.23;;
2840;SDS011;53423;49.224;12.074;2023-03-20T07:51:06;7.93;;;7.10;;
2840;SDS011;53423;49.224;12.074;2023-03-20T07:53:35;7.77;;;7.07;;
2840;SDS011;53423;49.224;12.074;2023-03-20T07:56:03;8.07;;;6.50;;
2840;SDS011;53423;49.224;12.074;2023-03-20T07:58:32;7.03;;;6.43;;
2840;SDS011;53423;49.224;12.074;2023-03-20T08:00:59;7.30;;;6.60;;
2840;SDS011;53423;49.224;12.074;2023-03-20T08:03:28;7.63;;;6.93;;
2840;SDS011;53423;49.224;12.074;2023-03-20T08:05:57;7.37;;;6.67;;
2840;SDS011;53423;49.224;12.074;2023-03-20T08:08:25;7.90;;;7.20;;
2840;SDS011;53423;49.224;12.074;2023-03-20T08:10:54;7.63;;;6.93;;
2840;SDS011;53423;49.224;12.074;2023-03-20T08:13:22;7.77;;;7.17;;
2840;SDS011;53423;49.224;12.074;2023-03-20T08:15:50;8.03;;;7.33;;
2840;SDS011;53423;49.224;12.074;2023-03-20T08:18:18;7.77;;;7.07;;
2840;SDS011;53423;49.224;12.074;2023-03-20T08:20:47;7.13;;;6.53;;
2840;SDS011;53423;49.224;12.074;2023-03-20T08:23:16;8.00;;;6.63;;
2840;SDS011;53423;49.224;12.074;2023-03-20T08:25:46;7.90;;;7.20;;
2840;SDS011;53423;49.224;12.074;2023-03-20T08:28:16;7.90;;;7.20;;
2840;SDS011;53423;49.224;12.074;2023-03-20T08:30:44;7.80;;;7.20;;
2840;SDS011;53423;49.224;12.074;2023-03-20T08:33:13;7.37;;;6.77;;
2840;SDS011;53423;49.224;12.074;2023-03-20T08:35:42;7.90;;;7.27;;
2840;SDS011;53423;49.224;12.074;2023-03-20T08:38:11;8.23;;;7.50;;
2840;SDS011;53423;49.224;12.074;2023-03-20T08:40:40;8.20;;;7.50;;
2840;SDS011;53423;49.224;12.074;2023-03-20T08:43:08;7.67;;;7.07;;
2840;SDS011;53423;49.224;12.074;2023-03-20T08:45:37;8.83;;;7.93;;
2840;SDS011;53423;49.224;12.074;2023-03-20T08:48:05;8.10;;;7.40;;
2840;SDS011;53423;49.224;12.074;2023-03-20T08:50:34;8.57;;;7.77;;
2840;SDS011;53423;49.224;12.074;2023-03-20T08:53:02;8.33;;;7.53;;
2840;SDS011;53423;49.224;12.074;2023-03-20T08:55:30;8.50;;;7.23;;
2840;SDS011;53423;49.224;12.074;2023-03-20T08:57:58;8.63;;;7.83;;
2840;SDS011;53423;49.224;12.074;2023-03-20T09:00:26;8.63;;;7.83;;
2840;SDS011;53423;49.224;12.074;2023-03-20T09:02:56;7.83;;;7.13;;
2840;SDS011;53423;49.224;12.074;2023-03-20T09:05:24;7.20;;;6.70;;
2840;SDS011;53423;49.224;12.074;2023-03-20T09:07:52;6.80;;;6.30;;
2840;SDS011;53423;49.224;12.074;2023-03-20T09:10:20;6.70;;;6.20;;
2840;SDS011;53423;49.224;12.074;2023-03-20T09:12:48;7.00;;;6.30;;
2840;SDS011;53423;49.224;12.074;2023-03-20T09:15:16;6.73;;;6.23;;
2840;SDS011;53423;49.224;12.074;2023-03-20T09:17:44;6.33;;;5.93;;
2840;SDS011;53423;49.224;12.074;2023-03-20T09:20:13;6.80;;;6.30;;
2840;SDS011;53423;49.224;12.074;2023-03-20T09:22:42;7.30;;;6.77;;
2840;SDS011;53423;49.224;12.074;2023-03-20T09:25:10;6.47;;;6.03;;
2840;SDS011;53423;49.224;12.074;2023-03-20T09:27:39;7.03;;;6.53;;
2840;SDS011;53423;49.224;12.074;2023-03-20T09:30:08;6.63;;;6.03;;
2840;SDS011;53423;49.224;12.074;2023-03-20T09:32:37;6.30;;;5.80;;
2840;SDS011;53423;49.224;12.074;2023-03-20T09:35:06;7.63;;;7.03;;
2840;SDS011;53423;49.224;12.074;2023-03-20T09:37:35;6.83;;;6.40;;
2840;SDS011;53423;49.224;12.074;2023-03-20T09:40:03;8.47;;;7.70;;
2840;SDS011;53423;49.224;12.074;2023-03-20T09:42:36;7.27;;;6.77;;
2840;SDS011;53423;49.224;12.074;2023-03-20T09:45:15;7.07;;;6.57;;
2840;SDS011;53423;49.224;12.074;2023-03-20T09:47:52;5.80;;;5.30;;
2840;SDS011;53423;49.224;12.074;2023-03-20T09:50:30;5.50;;;5.07;;
2840;SDS011;53423;49.224;12.074;2023-03-20T09:53:03;5.50;;;5.10;;
2840;SDS011;53423;49.224;12.074;2023-03-20T09:55:37;5.03;;;4.63;;
2840;SDS011;53423;49.224;12.074;2023-03-20T09:58:09;5.30;;;4.83;;
2840;SDS011;53423;49.224;12.074;2023-03-20T10:00:41;5.23;;;4.83;;
2840;SDS011;53423;49.224;12.074;2023-03-20T10:03:15;4.77;;;4.37;;
2840;SDS011;53423;49.224;12.074;2023-03-20T10:05:46;4.80;;;4.50;;
2840;SDS011;53423;49.224;12.074;2023-03-20T10:08:20;4.60;;;4.30;;
2840;SDS011;53423;49.224;12.074;2023-03-20T10:10:54;3.83;;;3.53;;
2840;SDS011;53423;49.224;12.074;2023-03-20T10:13:33;3.87;;;3.60;;
2840;SDS011;53423;49.224;12.074;2023-03-20T10:16:15;3.93;;;3.63;;
2840;SDS011;53423;49.224;12.074;2023-03-20T10:18:50;4.20;;;3.90;;
2840;SDS011;53423;49.224;12.074;2023-03-20T10:21:28;3.70;;;3.50;;
2840;SDS011;53423;49.224;12.074;2023-03-20T10:24:06;4.40;;;4.10;;
2840;SDS011;53423;49.224;12.074;2023-03-20T10:26:45;4.17;;;3.87;;
2840;SDS011;53423;49.224;12.074;2023-03-20T10:29:19;3.97;;;3.67;;
2840;SDS011;53423;49.224;12.074;2023-03-20T10:31:58;3.37;;;3.17;;
2840;SDS011;53423;49.224;12.074;2023-03-20T10:34:38;3.40;;;3.20;;
2840;SDS011;53423;49.224;12.074;2023-03-20T10:37:18;3.70;;;3.50;;
2840;SDS011;53423;49.224;12.074;2023-03-20T10:39:59;3.30;;;3.10;;
2840;SDS011;53423;49.224;12.074;2023-03-20T10:42:43;3.13;;;2.92;;
2840;SDS011;53423;49.224;12.074;2023-03-20T10:45:18;3.03;;;2.83;;
2840;SDS011;53423;49.224;12.074;2023-03-20T10:47:54;3.15;;;2.92;;
2840;SDS011;53423;49.224;12.074;2023-03-20T10:50:26;3.42;;;2.50;;
2840;SDS011;53423;49.224;12.074;2023-03-20T10:52:57;3.22;;;2.97;;
2840;SDS011;53423;49.224;12.074;2023-03-20T10:55:31;2.47;;;2.27;;
2840;SDS011;53423;49.224;12.074;2023-03-20T10:58:02;2.20;;;2.10;;
2840;SDS011;53423;49.224;12.074;2023-03-20T11:00:39;2.50;;;2.30;;
2840;SDS011;53423;49.224;12.074;2023-03-20T11:03:08;2.80;;;2.60;;
2840;SDS011;53423;49.224;12.074;2023-03-20T11:05:45;3.10;;;2.80;;
2840;SDS011;53423;49.224;12.074;2023-03-20T11:08:34;2.40;;;2.30;;
2840;SDS011;53423;49.224;12.074;2023-03-20T11:11:07;2.10;;;2.00;;
2840;SDS011;53423;49.224;12.074;2023-03-20T11:13:36;1.60;;;1.50;;
2840;SDS011;53423;49.224;12.074;2023-03-20T11:16:11;1.63;;;1.53;;
2840;SDS011;53423;49.224;12.074;2023-03-20T11:18:46;1.67;;;1.57;;
2840;SDS011;53423;49.224;12.074;2023-03-20T11:21:17;1.80;;;1.70;;
2840;SDS011;53423;49.224;12.074;2023-03-20T11:23:48;1.90;;;1.80;;
2840;SDS011;53423;49.224;12.074;2023-03-20T11:26:19;3.33;;;3.13;;
2840;SDS011;53423;49.224;12.074;2023-03-20T11:28:55;2.90;;;2.70;;
2840;SDS011;53423;49.224;12.074;2023-03-20T11:31:28;2.00;;;1.90;;
2840;SDS011;53423;49.224;12.074;2023-03-20T11:33:59;1.50;;;1.40;;
2840;SDS011;53423;49.224;12.074;2023-03-20T11:36:37;0.80;;;0.80;;
2840;SDS011;53423;49.224;12.074;2023-03-20T11:39:09;1.10;;;1.00;;
2840;SDS011;53423;49.224;12.074;2023-03-20T11:41:45;1.40;;;1.30;;
2840;SDS011;53423;49.224;12.074;2023-03-20T11:44:24;0.82;;;0.82;;
2840;SDS011;53423;49.224;12.074;2023-03-20T11:46:53;1.23;;;1.20;;
2840;SDS011;53423;49.224;12.074;2023-03-20T11:49:23;0.93;;;0.93;;
2840;SDS011;53423;49.224;12.074;2023-03-20T11:51:53;1.50;;;1.37;;
2840;SDS011;53423;49.224;12.074;2023-03-20T11:54:25;1.37;;;1.27;;
2840;SDS011;53423;49.224;12.074;2023-03-20T11:56:56;1.20;;;1.10;;
2840;SDS011;53423;49.224;12.074;2023-03-20T11:59:25;0.97;;;0.97;;
2840;SDS011;53423;49.224;12.074;2023-03-20T12:01:58;1.90;;;1.23;;
2840;SDS011;53423;49.224;12.074;2023-03-20T12:04:29;1.50;;;1.40;;
2840;SDS011;53423;49.224;12.074;2023-03-20T12:07:00;2.60;;;1.20;;
2840;SDS011;53423;49.224;12.074;2023-03-20T12:09:36;1.17;;;0.93;;
2840;SDS011;53423;49.224;12.074;2023-03-20T12:12:12;1.30;;;1.07;;
2840;SDS011;53423;49.224;12.074;2023-03-20T12:14:48;0.93;;;0.93;;
2840;SDS011;53423;49.224;12.074;2023-03-20T12:17:29;2.40;;;2.13;;
2840;SDS011;53423;49.224;12.074;2023-03-20T12:20:03;2.47;;;2.27;;
2840;SDS011;53423;49.224;12.074;2023-03-20T12:22:39;2.17;;;1.97;;
2840;SDS011;53423;49.224;12.074;2023-03-20T12:25:17;1.83;;;1.67;;
2840;SDS011;53423;49.224;12.074;2023-03-20T12:27:54;4.60;;;1.90;;
2840;SDS011;53423;49.224;12.074;2023-03-20T12:30:30;1.40;;;0.83;;
2840;SDS011;53423;49.224;12.074;2023-03-20T12:33:06;3.20;;;2.70;;
2840;SDS011;53423;49.224;12.074;2023-03-20T12:35:39;2.00;;;1.80;;
2840;SDS011;53423;49.224;12.074;2023-03-20T12:38:16;1.20;;;1.10;;
2840;SDS011;53423;49.224;12.074;2023-03-20T12:40:52;2.40;;;2.20;;
2840;SDS011;53423;49.224;12.074;2023-03-20T12:43:26;1.50;;;1.37;;
2840;SDS011;53423;49.224;12.074;2023-03-20T12:46:04;1.00;;;1.00;;
2840;SDS011;53423;49.224;12.074;2023-03-20T12:48:40;1.07;;;0.93;;
2840;SDS011;53423;49.224;12.074;2023-03-20T12:51:20;0.60;;;0.60;;
2840;SDS011;53423;49.224;12.074;2023-03-20T12:53:59;1.73;;;0.90;;
2840;SDS011;53423;49.224;12.074;2023-03-20T12:56:49;0.90;;;0.90;;
2840;SDS011;53423;49.224;12.074;2023-03-20T12:59:28;0.50;;;0.40;;
2840;SDS011;53423;49.224;12.074;2023-03-20T13:02:10;1.17;;;0.97;;
2840;SDS011;53423;49.224;12.074;2023-03-20T13:04:52;1.00;;;0.93;;
2840;SDS011;53423;49.224;12.074;2023-03-20T13:07:30;0.77;;;0.77;;
2840;SDS011;53423;49.224;12.074;2023-03-20T13:10:11;1.70;;;0.90;;
2840;SDS011;53423;49.224;12.074;2023-03-20T13:12:48;0.87;;;0.87;;
2840;SDS011;53423;49.224;12.074;2023-03-20T13:15:32;1.00;;;0.80;;
2840;SDS011;53423;49.224;12.074;2023-03-20T13:18:10;1.50;;;1.40;;
2840;SDS011;53423;49.224;12.074;2023-03-20T13:20:47;1.90;;;1.80;;
2840;SDS011;53423;49.224;12.074;2023-03-20T13:23:22;1.00;;;0.90;;
2840;SDS011;53423;49.224;12.074;2023-03-20T13:26:00;1.53;;;1.33;;
2840;SDS011;53423;49.224;12.074;2023-03-20T13:28:37;1.23;;;1.13;;
2840;SDS011;53423;49.224;12.074;2023-03-20T13:31:14;1.20;;;1.10;;
2840;SDS011;53423;49.224;12.074;2023-03-20T13:33:51;1.27;;;0.90;;
2840;SDS011;53423;49.224;12.074;2023-03-20T13:36:34;1.37;;;0.90;;
2840;SDS011;53423;49.224;12.074;2023-03-20T13:39:24;0.87;;;0.87;;
2840;SDS011;53423;49.224;12.074;2023-03-20T13:41:56;0.70;;;0.70;;
2840;SDS011;53423;49.224;12.074;2023-03-20T13:44:27;0.47;;;0.47;;
2840;SDS011;53423;49.224;12.074;2023-03-20T13:46:59;0.57;;;0.50;;
2840;SDS011;53423;49.224;12.074;2023-03-20T13:49:32;0.80;;;0.80;;
2840;SDS011;53423;49.224;12.074;2023-03-20T13:52:05;0.83;;;0.83;;
2840;SDS011;53423;49.224;12.074;2023-03-20T13:54:45;0.70;;;0.70;;
2840;SDS011;53423;49.224;12.074;2023-03-20T13:57:40;0.63;;;0.63;;
2840;SDS011;53423;49.224;12.074;2023-03-20T14:00:18;0.60;;;0.60;;
2840;SDS011;53423;49.224;12.074;2023-03-20T14:03:02;1.57;;;0.93;;
2840;SDS011;53423;49.224;12.074;2023-03-20T14:05:39;1.40;;;1.30;;
2840;SDS011;53423;49.224;12.074;2023-03-20T14:08:21;0.90;;;0.83;;
2840;SDS011;53423;49.224;12.074;2023-03-20T14:10:53;0.90;;;0.60;;
2840;SDS011;53423;49.224;12.074;2023-03-20T14:13:22;0.80;;;0.80;;
2840;SDS011;53423;49.224;12.074;2023-03-20T14:15:54;0.83;;;0.83;;
2840;SDS011;53423;49.224;12.074;2023-03-20T14:18:24;1.10;;;1.00;;
2840;SDS011;53423;49.224;12.074;2023-03-20T14:20:53;1.63;;;0.67;;
2840;SDS011;53423;49.224;12.074;2023-03-20T14:23:30;1.07;;;0.83;;
2840;SDS011;53423;49.224;12.074;2023-03-20T14:26:04;1.07;;;0.80;;
2840;SDS011;53423;49.224;12.074;2023-03-20T14:28:47;1.00;;;0.80;;
2840;SDS011;53423;49.224;12.074;2023-03-20T14:31:21;1.13;;;0.90;;
2840;SDS011;53423;49.224;12.074;2023-03-20T14:34:00;0.90;;;0.80;;
2840;SDS011;53423;49.224;12.074;2023-03-20T14:36:49;0.67;;;0.60;;
2840;SDS011;53423;49.224;12.074;2023-03-20T14:39:21;1.40;;;0.77;;
2840;SDS011;53423;49.224;12.074;2023-03-20T14:42:01;0.40;;;0.40;;
2840;SDS011;53423;49.224;12.074;2023-03-20T14:44:49;0.63;;;0.60;;
2840;SDS011;53423;49.224;12.074;2023-03-20T14:47:26;0.83;;;0.83;;
2840;SDS011;53423;49.224;12.074;2023-03-20T14:50:13;3.20;;;3.00;;
2840;SDS011;53423;49.224;12.074;2023-03-20T14:52:52;3.40;;;3.20;;
2840;SDS011;53423;49.224;12.074;2023-03-20T14:55:29;1.50;;;1.40;;
2840;SDS011;53423;49.224;12.074;2023-03-20T14:58:03;2.37;;;1.57;;
2840;SDS011;53423;49.224;12.074;2023-03-20T15:00:33;1.43;;;0.83;;
2840;SDS011;53423;49.224;12.074;2023-03-20T15:03:10;0.57;;;0.57;;
2840;SDS011;53423;49.224;12.074;2023-03-20T15:05:43;2.20;;;0.80;;
2840;SDS011;53423;49.224;12.074;2023-03-20T15:08:14;1.30;;;0.80;;
2840;SDS011;53423;49.224;12.074;2023-03-20T15:10:49;0.73;;;0.73;;
2840;SDS011;53423;49.224;12.074;2023-03-20T15:13:20;0.63;;;0.63;;
2840;SDS011;53423;49.224;12.074;2023-03-20T15:15:51;0.90;;;0.83;;
2840;SDS011;53423;49.224;12.074;2023-03-20T15:18:21;1.20;;;1.10;;
2840;SDS011;53423;49.224;12.074;2023-03-20T15:20:51;0.83;;;0.83;;
2840;SDS011;53423;49.224;12.074;2023-03-20T15:23:20;1.27;;;0.70;;
2840;SDS011;53423;49.224;12.074;2023-03-20T15:25:48;0.97;;;0.80;;
2840;SDS011;53423;49.224;12.074;2023-03-20T15:28:18;0.87;;;0.80;;